Duncans Mills, CA (95430)

10:50 AM PDT on March 24, 2017 (GMT -0700)
Russian River Meadows | | Change Station
Active Advisory: Wind Advisory

Elev 55 ft 38.46 °N, 123.04 °W | Updated 15 seconds ago

Rain
Rain
52.9 °F
Feels Like 52.9 °F
N
1.1
Wind Variable Wind from WSW
Gusts 2.5 mph

Today
High -- | Low -- °F
--% Chance of Precip.
Yesterday
High -- | Low -- °F
Precip. -- in
Pressure 30.09 in
Visibility 2.0 miles
Clouds Overcast 900 ft
Dew Point 51 °F
Humidity 94%
Rainfall 1.48 in
Snow Depth Not available.
7:08 AM 7:28 PM
Waning Crescent, 14% visible
METAR KSTS 241653Z 17008KT 2SM +RA BR OVC009 09/09 A3010 RMK AO2 CIG 007V012 SLP187 P0024 T00940089
Pressure 30.09 in
Visibility 2.0 miles
Clouds Overcast 900 ft
Dew Point 51 °F
Humidity 94%
Rainfall 1.48 in
Snow Depth Not available.
7:08 AM 7:28 PM
Waning Crescent, 14% visible
METAR KSTS 241653Z 17008KT 2SM +RA BR OVC009 09/09 A3010 RMK AO2 CIG 007V012 SLP187 P0024 T00940089

Get Your Daily Forecast Email!

Thanks for signing up!

Be on the lookout for a verification email in your inbox.

You'll start receiving severe weather alerts in your inbox..

×

10-Day Weather Forecast

Almanac

Astronomy

Mar. 24, 2017 Rise Set
Actual Time
Civil Twilight
Nautical Twilight
Astronomical Twilight
Moon
Length of Visible Light
Length of Day
Tomorrow will be .
, % of the Moon is Illuminated

Today's Extremes

State Highs State Lows

Community

WunderPhotos

Upload Photos

1,962,540 photos uploaded!

WunderBlog® & News

Nearby

Air Quality

  Air Quality AQ Index Pollutant
Not available.

Snow Depth

Station Depth Elevation

Earthquake Activity

City Distance Mag. Time & Date
Minimum magnitude displayed is 2.5.

Earthquake Activity

City Distance Mag. Time & Date
Minimum magnitude displayed is 2.5.

Coastal Water Temperatures

Place Temperature

Stations

Nearby Weather Stations

Station Location Temp. Windchill Dew Point Humidity Wind Precip. Elev Updated Type
                   

Watches & Warnings

Wind Advisory
Issued: 2:51 AM PDT Mar. 24, 2017 – National Weather Service

... Wind Advisory in effect from 6 am this morning to 3 PM PDT
this afternoon...

The National Weather Service in San Francisco has issued a Wind
Advisory, which is in effect from 6 am this morning to 3 PM PDT
this afternoon.

* Timing... this morning through mid afternoon.

* Winds... southerly winds of 20 to 35 mph with gusts to 45 mph.

* Impacts... gusty winds will make driving difficult especially for
drivers of high profile vehicles. Downed trees and powerlines
are also possible during these strong winds.

Precautionary/preparedness actions...

A Wind Advisory means that winds of 35 mph are expected. Winds
this strong can make driving difficult... especially for high
profile vehicles. Use extra caution.